createdAt,value
2022-08-17T00:03:42.715Z,72.01
2022-08-17T00:06:13.225Z,71.59
2022-08-17T00:08:46.345Z,71.92
2022-08-17T00:11:20.143Z,72.29
2022-08-17T00:13:55.893Z,71.86
2022-08-17T00:16:50.484Z,71.72
2022-08-17T00:19:24.354Z,71.83
2022-08-17T00:22:33.753Z,72.25
2022-08-17T00:24:40.482Z,72.33
2022-08-17T00:27:08.316Z,72.24
2022-08-17T00:29:35.315Z,72.30
2022-08-17T00:33:15.280Z,72.09
2022-08-17T00:34:50.637Z,72.28
2022-08-17T00:37:17.623Z,72.56
2022-08-17T00:39:44.643Z,72.60
2022-08-17T00:42:16.821Z,72.44
2022-08-17T00:44:45.014Z,72.77
2022-08-17T00:47:11.941Z,72.60
2022-08-17T00:49:38.822Z,72.14
2022-08-17T00:52:15.669Z,72.75
2022-08-17T00:54:46.692Z,73.41
2022-08-17T00:57:20.265Z,73.71
2022-08-17T01:00:03.362Z,73.37
2022-08-17T01:02:42.370Z,73.91
2022-08-17T01:05:18.460Z,74.20
2022-08-17T01:07:48.107Z,74.04
2022-08-17T01:10:59.361Z,73.96
2022-08-17T01:13:04.791Z,74.07
2022-08-17T01:15:35.218Z,74.29
2022-08-17T01:18:02.913Z,74.32
2022-08-17T01:20:30.012Z,74.57
2022-08-17T01:23:16.398Z,74.08
2022-08-17T01:25:51.640Z,74.17
2022-08-17T01:28:33.219Z,73.71
2022-08-17T01:31:07.476Z,74.27
2022-08-17T01:33:34.448Z,74.03
2022-08-17T01:36:01.516Z,74.06
2022-08-17T01:38:32.035Z,74.34
2022-08-17T01:41:06.122Z,74.02
2022-08-17T01:44:01.608Z,74.89
2022-08-17T01:46:32.225Z,75.10
2022-08-17T01:48:59.622Z,74.72
2022-08-17T01:51:32.845Z,74.69
2022-08-17T01:54:05.765Z,75.01
2022-08-17T01:56:35.246Z,74.89
2022-08-17T01:59:03.125Z,75.38
2022-08-17T02:01:32.542Z,74.89
2022-08-17T02:04:01.087Z,74.93
2022-08-17T02:06:31.454Z,74.59
2022-08-17T02:09:16.403Z,74.56
2022-08-17T02:11:44.955Z,74.52
2022-08-17T02:14:13.834Z,74.60
2022-08-17T02:16:41.646Z,74.12
2022-08-17T02:19:14.192Z,74.65
2022-08-17T02:21:42.929Z,74.90
2022-08-17T02:24:13.472Z,75.41
2022-08-17T02:26:40.658Z,75.79
2022-08-17T02:29:07.854Z,76.57
2022-08-17T02:31:35.758Z,77.22
2022-08-17T02:34:04.930Z,76.53
2022-08-17T02:36:34.341Z,76.62
2022-08-17T02:39:07.115Z,78.03
2022-08-17T02:41:34.294Z,79.82
2022-08-17T02:44:01.611Z,79.48
2022-08-17T02:46:30.775Z,79.82
2022-08-17T02:48:58.042Z,79.76
2022-08-17T02:51:25.510Z,79.22
2022-08-17T02:53:52.860Z,78.90
2022-08-17T02:56:39.859Z,78.90
2022-08-17T02:59:06.822Z,78.75
2022-08-17T03:01:33.768Z,78.60
2022-08-17T03:04:00.938Z,78.67
2022-08-17T03:06:31.963Z,78.59
2022-08-17T03:08:59.134Z,78.77
2022-08-17T03:11:26.099Z,78.66
2022-08-17T03:13:53.076Z,78.73
2022-08-17T03:16:19.948Z,78.76
2022-08-17T03:18:47.027Z,78.23
2022-08-17T03:21:14.144Z,78.19
2022-08-17T03:23:42.349Z,78.00
2022-08-17T03:26:12.358Z,77.88
2022-08-17T03:28:42.381Z,78.29
2022-08-17T03:31:09.579Z,78.53
2022-08-17T03:33:36.579Z,78.46
2022-08-17T03:36:03.863Z,78.67
2022-08-17T03:38:38.991Z,78.53
2022-08-17T03:41:07.502Z,78.39
2022-08-17T03:43:34.927Z,77.25
2022-08-17T03:46:27.883Z,76.89
2022-08-17T03:49:25.504Z,77.11
2022-08-17T03:52:11.771Z,77.25
2022-08-17T03:54:58.360Z,76.61
2022-08-17T03:57:26.279Z,76.12
2022-08-17T03:59:54.432Z,75.56
2022-08-17T04:02:32.058Z,74.29
2022-08-17T04:04:59.335Z,73.66
2022-08-17T04:07:29.812Z,72.96
2022-08-17T04:09:58.301Z,72.10
2022-08-17T04:12:26.365Z,71.23
2022-08-17T04:14:54.938Z,70.50
2022-08-17T04:17:25.684Z,69.65
2022-08-17T04:19:53.405Z,69.20
2022-08-17T04:22:30.666Z,68.56
2022-08-17T04:25:07.845Z,68.03
2022-08-17T04:27:34.834Z,67.65
2022-08-17T04:30:02.669Z,67.22
2022-08-17T04:33:00.516Z,66.42
2022-08-17T04:35:25.737Z,65.27
2022-08-17T04:37:53.810Z,64.61
2022-08-17T04:40:41.225Z,63.88
2022-08-17T04:43:14.342Z,62.32
2022-08-17T04:45:54.881Z,62.08
2022-08-17T04:48:36.381Z,61.80
2022-08-17T04:51:11.996Z,61.32
2022-08-17T04:53:44.724Z,59.46
2022-08-17T04:56:16.863Z,60.08
2022-08-17T04:58:49.789Z,59.79
2022-08-17T05:01:19.078Z,60.18
2022-08-17T05:03:54.904Z,60.25
2022-08-17T05:06:22.788Z,59.17
2022-08-17T05:08:49.758Z,59.12
2022-08-17T05:11:16.973Z,58.43
2022-08-17T05:13:44.977Z,58.35
2022-08-17T05:16:12.173Z,57.58
2022-08-17T05:18:39.238Z,56.20
2022-08-17T05:21:07.091Z,55.02
2022-08-17T05:23:41.769Z,54.56
2022-08-17T05:26:26.153Z,53.76
2022-08-17T05:28:57.204Z,53.22
2022-08-17T05:31:27.532Z,52.22
2022-08-17T05:33:54.577Z,51.24
2022-08-17T05:36:41.882Z,51.39
2022-08-17T05:39:08.694Z,50.24
2022-08-17T05:41:42.902Z,49.62
2022-08-17T05:44:09.905Z,48.62
2022-08-17T05:46:42.935Z,47.09
2022-08-17T05:49:11.266Z,47.08
2022-08-17T05:52:18.786Z,46.53
2022-08-17T05:55:24.453Z,46.04
2022-08-17T05:58:35.863Z,43.49
2022-08-17T06:01:31.799Z,42.73
2022-08-17T06:04:12.740Z,42.54
2022-08-17T06:06:48.035Z,44.33
2022-08-17T06:09:30.113Z,43.32
2022-08-17T06:12:18.884Z,42.46
2022-08-17T06:15:07.588Z,41.09
2022-08-17T06:17:34.835Z,41.72
2022-08-17T06:20:10.522Z,40.53
2022-08-17T06:22:44.771Z,40.33
2022-08-17T06:25:22.996Z,40.85
2022-08-17T06:28:20.212Z,39.03
2022-08-17T06:30:59.698Z,39.17
2022-08-17T06:33:35.396Z,38.97
2022-08-17T06:36:40.579Z,38.66
2022-08-17T06:39:39.738Z,39.08
2022-08-17T06:42:58.832Z,39.19
2022-08-17T06:45:15.155Z,38.47
2022-08-17T06:47:59.550Z,39.30
2022-08-17T06:50:42.593Z,38.79
2022-08-17T06:53:36.615Z,37.16
2022-08-17T06:56:06.453Z,38.15
2022-08-17T06:58:35.919Z,36.72
2022-08-17T07:01:09.954Z,36.78
2022-08-17T07:03:44.812Z,35.31
2022-08-17T07:06:18.915Z,34.99
2022-08-17T07:09:08.196Z,34.67
2022-08-17T07:11:51.848Z,34.69
2022-08-17T07:14:38.535Z,35.26
2022-08-17T07:17:13.442Z,34.84
2022-08-17T07:19:45.587Z,34.35
2022-08-17T07:22:58.141Z,34.10
2022-08-17T07:25:28.779Z,34.40
2022-08-17T07:28:00.415Z,34.71
2022-08-17T07:30:45.895Z,35.36
2022-08-17T07:33:24.229Z,34.67
2022-08-17T07:35:51.758Z,34.41
2022-08-17T07:38:28.477Z,34.66
2022-08-17T07:41:00.018Z,33.63
2022-08-17T07:43:41.874Z,33.85
2022-08-17T07:46:30.271Z,33.67
2022-08-17T07:49:08.761Z,34.54
2022-08-17T07:51:59.971Z,34.33
2022-08-17T07:54:42.855Z,33.63
2022-08-17T07:57:13.040Z,33.86
2022-08-17T08:00:04.355Z,34.01
2022-08-17T08:02:34.602Z,34.38
2022-08-17T08:05:30.742Z,33.83
2022-08-17T08:08:39.872Z,31.80
2022-08-17T08:11:10.643Z,32.47
2022-08-17T08:13:44.005Z,33.12
2022-08-17T08:16:24.706Z,32.02
2022-08-17T08:19:00.430Z,32.15
2022-08-17T08:21:39.434Z,32.20
2022-08-17T08:24:12.402Z,30.55
2022-08-17T08:26:49.172Z,31.57
2022-08-17T08:29:28.465Z,32.38
2022-08-17T08:32:22.362Z,33.55
2022-08-17T08:35:31.113Z,32.35
2022-08-17T08:38:23.902Z,32.01
2022-08-17T08:41:24.313Z,32.32
2022-08-17T08:44:08.201Z,32.54
2022-08-17T08:47:00.043Z,30.37
2022-08-17T08:50:06.944Z,30.99
2022-08-17T08:53:01.513Z,31.31
2022-08-17T08:55:48.193Z,32.48
2022-08-17T08:58:31.992Z,33.33
2022-08-17T09:01:48.225Z,32.29
2022-08-17T09:04:25.042Z,31.69
2022-08-17T09:07:28.377Z,32.32
2022-08-17T09:10:01.125Z,32.97
2022-08-17T09:12:41.906Z,31.87
2022-08-17T09:15:27.818Z,30.95
2022-08-17T09:19:01.184Z,29.89
2022-08-17T09:21:08.146Z,31.49
2022-08-17T09:23:45.002Z,30.72
2022-08-17T09:26:24.364Z,30.91
2022-08-17T09:28:56.043Z,29.46
2022-08-17T09:31:46.432Z,29.46
2022-08-17T09:34:22.463Z,29.79
2022-08-17T09:37:15.294Z,29.54
2022-08-17T09:40:02.620Z,30.04
2022-08-17T09:42:36.324Z,30.56
2022-08-17T09:45:19.786Z,29.78
2022-08-17T09:48:00.772Z,30.61
2022-08-17T09:51:07.160Z,31.10
2022-08-17T09:53:38.223Z,30.66
2022-08-17T09:56:43.766Z,30.18
2022-08-17T09:59:38.232Z,31.37
2022-08-17T10:02:34.304Z,30.86
2022-08-17T10:05:15.849Z,32.92
2022-08-17T10:08:09.627Z,32.20
2022-08-17T10:10:52.492Z,30.82
2022-08-17T10:13:35.571Z,32.58
2022-08-17T10:16:21.126Z,31.98
2022-08-17T10:19:02.264Z,32.76
2022-08-17T10:22:00.881Z,31.11
2022-08-17T10:25:21.175Z,31.07
2022-08-17T10:27:54.127Z,32.55
2022-08-17T10:30:25.257Z,34.36
2022-08-17T10:32:57.767Z,32.64
2022-08-17T10:35:36.007Z,32.21
2022-08-17T10:38:30.070Z,32.31
2022-08-17T10:41:06.293Z,33.48
2022-08-17T10:43:57.843Z,31.78
2022-08-17T10:47:11.882Z,33.53
2022-08-17T10:49:47.914Z,33.37
2022-08-17T10:52:21.942Z,32.11
2022-08-17T10:54:50.945Z,30.08
2022-08-17T10:57:40.726Z,29.92
2022-08-17T11:00:25.642Z,29.93
2022-08-17T11:02:57.754Z,30.72
2022-08-17T11:05:42.926Z,31.17
2022-08-17T11:08:37.826Z,31.30
2022-08-17T11:11:36.256Z,32.08
2022-08-17T11:14:24.976Z,31.28
2022-08-17T11:16:51.949Z,31.32
2022-08-17T11:19:40.814Z,30.67
2022-08-17T11:22:31.366Z,31.65
2022-08-17T11:25:17.678Z,31.78
2022-08-17T11:27:53.941Z,32.39
2022-08-17T11:30:48.772Z,32.12
2022-08-17T11:33:38.311Z,31.62
2022-08-17T11:36:17.732Z,31.64
2022-08-17T11:39:00.047Z,32.78
2022-08-17T11:41:46.277Z,31.04
2022-08-17T11:44:25.453Z,31.06
2022-08-17T11:47:41.993Z,32.12
2022-08-17T11:50:54.551Z,32.11
2022-08-17T11:53:54.347Z,33.36
2022-08-17T11:56:41.746Z,30.40
2022-08-17T11:59:33.432Z,31.11
2022-08-17T12:02:22.412Z,32.26
2022-08-17T12:05:03.452Z,30.83
2022-08-17T12:07:33.375Z,30.66
2022-08-17T12:10:01.398Z,32.57
2022-08-17T12:12:36.028Z,32.40
2022-08-17T12:15:12.066Z,32.32
2022-08-17T12:17:42.651Z,32.28
2022-08-17T12:20:15.742Z,30.88
2022-08-17T12:23:07.895Z,30.04
2022-08-17T12:25:39.661Z,30.24
2022-08-17T12:28:26.893Z,29.45
2022-08-17T12:30:56.463Z,29.53
2022-08-17T12:33:28.212Z,29.63
2022-08-17T12:36:05.229Z,29.45
2022-08-17T12:38:36.318Z,29.44
2022-08-17T12:41:24.961Z,30.00
2022-08-17T12:44:04.999Z,30.59
2022-08-17T12:46:51.704Z,30.36
2022-08-17T12:49:36.458Z,29.84
2022-08-17T12:52:14.288Z,28.83
2022-08-17T12:54:44.317Z,30.32
2022-08-17T12:57:33.898Z,31.47
2022-08-17T13:00:09.849Z,29.63
2022-08-17T13:02:40.416Z,28.85
2022-08-17T13:05:18.068Z,29.63
2022-08-17T13:07:46.803Z,29.19
2022-08-17T13:10:21.729Z,29.62
2022-08-17T13:12:51.087Z,29.64
2022-08-17T13:15:50.914Z,29.48
2022-08-17T13:18:39.188Z,30.87
2022-08-17T13:21:24.097Z,30.99
2022-08-17T13:24:10.883Z,29.33
2022-08-17T13:26:44.734Z,28.65
2022-08-17T13:29:24.254Z,28.91
2022-08-17T13:31:58.901Z,30.18
2022-08-17T13:35:15.444Z,28.92
2022-08-17T13:37:32.665Z,30.15
2022-08-17T13:40:21.984Z,30.03
2022-08-17T13:42:53.985Z,29.88
2022-08-17T13:45:34.875Z,28.99
2022-08-17T13:48:11.167Z,30.61
2022-08-17T13:50:41.083Z,30.84
2022-08-17T13:53:33.684Z,30.93
2022-08-17T13:56:37.636Z,30.06
2022-08-17T13:59:10.082Z,29.56
2022-08-17T14:01:53.635Z,30.47
2022-08-17T14:04:29.632Z,30.07
2022-08-17T14:07:22.272Z,29.93
2022-08-17T14:10:00.213Z,29.17
2022-08-17T14:12:30.642Z,30.40
2022-08-17T14:14:59.084Z,30.97
2022-08-17T14:17:29.049Z,30.59
2022-08-17T14:19:56.447Z,29.49
2022-08-17T14:22:34.714Z,29.49
2022-08-17T14:25:02.517Z,31.99
2022-08-17T14:27:33.734Z,31.38
2022-08-17T14:30:20.158Z,30.80
2022-08-17T14:32:49.235Z,31.42
2022-08-17T14:35:16.298Z,31.52
2022-08-17T14:37:44.956Z,31.72
2022-08-17T14:40:14.533Z,32.10
2022-08-17T14:42:44.224Z,32.32
2022-08-17T14:45:30.044Z,32.54
2022-08-17T14:48:07.837Z,32.24
2022-08-17T14:50:41.414Z,31.41
2022-08-17T14:53:11.885Z,31.30
2022-08-17T14:55:40.918Z,32.06
2022-08-17T14:58:09.344Z,31.45
2022-08-17T15:00:37.551Z,31.56
2022-08-17T15:03:04.695Z,31.52
2022-08-17T15:05:35.605Z,31.91
2022-08-17T15:08:04.733Z,32.06
2022-08-17T15:10:32.367Z,31.89
2022-08-17T15:13:00.415Z,32.63
2022-08-17T15:15:28.417Z,32.55
2022-08-17T15:17:56.034Z,32.17
2022-08-17T15:20:27.770Z,32.27
2022-08-17T15:22:56.365Z,32.50
2022-08-17T15:25:28.254Z,32.36
2022-08-17T15:27:58.378Z,32.65
2022-08-17T15:30:26.202Z,32.44
2022-08-17T15:32:55.049Z,32.89
2022-08-17T15:35:27.737Z,32.70
2022-08-17T15:38:11.716Z,32.07
2022-08-17T15:40:45.418Z,31.72
2022-08-17T15:43:22.004Z,32.51
2022-08-17T15:46:00.165Z,32.25
2022-08-17T15:48:42.046Z,32.57
2022-08-17T15:51:16.446Z,32.64
2022-08-17T15:53:45.926Z,32.57
2022-08-17T15:56:15.195Z,32.00
2022-08-17T15:58:44.379Z,32.55
2022-08-17T16:01:14.658Z,33.09
2022-08-17T16:04:05.012Z,33.70
2022-08-17T16:06:32.998Z,33.68
2022-08-17T16:09:00.642Z,34.07
2022-08-17T16:11:27.569Z,34.27
2022-08-17T16:13:54.601Z,34.50
2022-08-17T16:16:23.821Z,34.33
2022-08-17T16:18:54.556Z,34.39
2022-08-17T16:21:25.903Z,34.92
2022-08-17T16:23:56.573Z,35.64
2022-08-17T16:26:23.667Z,35.65
2022-08-17T16:28:51.494Z,35.97
2022-08-17T16:31:18.413Z,36.24
2022-08-17T16:33:58.408Z,36.91
2022-08-17T16:36:32.444Z,37.31
2022-08-17T16:39:01.184Z,37.22
2022-08-17T16:41:46.746Z,37.51
2022-08-17T16:44:19.683Z,38.12
2022-08-17T16:46:48.054Z,38.41
2022-08-17T16:49:36.325Z,38.53
2022-08-17T16:52:10.720Z,39.08
2022-08-17T16:54:41.701Z,39.36
2022-08-17T16:57:08.744Z,39.62
2022-08-17T16:59:42.220Z,40.13
2022-08-17T17:02:23.794Z,40.87
2022-08-17T17:04:57.813Z,40.78
2022-08-17T17:07:36.535Z,41.85
2022-08-17T17:10:16.105Z,42.76
2022-08-17T17:13:02.006Z,42.33
2022-08-17T17:15:46.371Z,44.34
2022-08-17T17:18:15.527Z,44.14
2022-08-17T17:20:55.018Z,46.40
2022-08-17T17:23:48.317Z,47.57
2022-08-17T17:26:40.920Z,47.59
2022-08-17T17:29:47.174Z,49.01
2022-08-17T17:32:48.428Z,50.14
2022-08-17T17:35:38.519Z,49.95
2022-08-17T17:38:12.338Z,49.19
2022-08-17T17:40:43.038Z,48.67
2022-08-17T17:43:37.674Z,48.87
2022-08-17T17:46:27.767Z,49.20
2022-08-17T17:48:55.413Z,50.19
2022-08-17T17:52:09.263Z,49.79
2022-08-17T17:54:16.278Z,50.98
2022-08-17T17:57:03.419Z,51.28
2022-08-17T18:00:10.016Z,51.88
2022-08-17T18:02:55.473Z,52.86
2022-08-17T18:05:37.709Z,53.75
2022-08-17T18:08:10.930Z,53.83
2022-08-17T18:10:54.719Z,54.22
2022-08-17T18:13:41.506Z,55.59
2022-08-17T18:16:14.415Z,55.75
2022-08-17T18:18:44.908Z,55.59
2022-08-17T18:21:20.576Z,55.67
2022-08-17T18:23:56.398Z,57.02
2022-08-17T18:26:37.665Z,56.75
2022-08-17T18:29:28.175Z,56.98
2022-08-17T18:32:22.047Z,57.03
2022-08-17T18:34:53.936Z,56.28
2022-08-17T18:37:33.026Z,56.89
2022-08-17T18:40:20.537Z,56.83
2022-08-17T18:42:50.499Z,57.10
2022-08-17T18:45:34.756Z,58.59
2022-08-17T18:48:02.597Z,58.58
2022-08-17T18:50:42.562Z,58.81
2022-08-17T18:53:41.152Z,59.65
2022-08-17T18:56:31.336Z,59.58
2022-08-17T18:59:28.222Z,60.24
2022-08-17T19:02:23.220Z,60.46
2022-08-17T19:05:13.599Z,60.26
2022-08-17T19:07:46.807Z,60.75
2022-08-17T19:10:32.096Z,61.42
2022-08-17T19:13:29.458Z,61.67
2022-08-17T19:16:19.077Z,60.93
2022-08-17T19:18:52.178Z,61.35
2022-08-17T19:21:25.542Z,61.38
2022-08-17T19:23:59.170Z,61.62
2022-08-17T19:26:51.068Z,61.60
2022-08-17T19:29:35.567Z,61.49
2022-08-17T19:32:03.427Z,61.40
2022-08-17T19:34:34.670Z,61.47
2022-08-17T19:37:07.687Z,61.26
2022-08-17T19:40:10.064Z,62.13
2022-08-17T19:42:39.524Z,61.13
2022-08-17T19:45:16.067Z,61.34
2022-08-17T19:47:57.074Z,61.82
2022-08-17T19:51:07.657Z,62.42
2022-08-17T19:54:04.411Z,62.09
2022-08-17T19:56:45.184Z,61.68
2022-08-17T19:59:48.989Z,62.28
2022-08-17T20:02:39.646Z,61.88
2022-08-17T20:05:16.354Z,62.38
2022-08-17T20:08:07.897Z,63.52
2022-08-17T20:10:39.024Z,63.18
2022-08-17T20:13:13.625Z,62.66
2022-08-17T20:15:43.461Z,62.34
2022-08-17T20:18:24.506Z,63.03
2022-08-17T20:21:11.217Z,63.23
2022-08-17T20:24:06.392Z,63.59
2022-08-17T20:26:59.298Z,63.70
2022-08-17T20:29:39.880Z,62.93
2022-08-17T20:32:18.505Z,63.39
2022-08-17T20:34:47.295Z,63.27
2022-08-17T20:37:14.540Z,63.19
2022-08-17T20:39:45.657Z,63.52
2022-08-17T20:42:15.647Z,63.26
2022-08-17T20:44:43.376Z,62.87
2022-08-17T20:47:27.499Z,63.25
2022-08-17T20:50:06.145Z,63.90
2022-08-17T20:52:36.081Z,64.17
2022-08-17T20:55:05.106Z,63.92
2022-08-17T20:57:32.285Z,63.89
2022-08-17T21:00:17.563Z,64.62
2022-08-17T21:02:47.591Z,64.03
2022-08-17T21:05:30.090Z,64.76
2022-08-17T21:08:01.492Z,64.18
2022-08-17T21:10:34.184Z,63.61
2022-08-17T21:13:16.136Z,63.96
2022-08-17T21:16:01.473Z,64.23
2022-08-17T21:18:51.614Z,64.04
2022-08-17T21:22:03.330Z,64.39
2022-08-17T21:24:32.843Z,63.82
2022-08-17T21:27:32.305Z,64.29
2022-08-17T21:30:01.834Z,64.06
2022-08-17T21:32:40.401Z,63.87
2022-08-17T21:35:12.603Z,63.82
2022-08-17T21:37:43.442Z,64.02
2022-08-17T21:40:10.498Z,63.92
2022-08-17T21:42:46.903Z,63.43
2022-08-17T21:45:31.276Z,64.38
2022-08-17T21:48:13.665Z,64.62
2022-08-17T21:50:43.943Z,64.63
2022-08-17T21:53:23.032Z,65.28
2022-08-17T21:55:52.657Z,65.12
2022-08-17T21:58:31.469Z,65.28
2022-08-17T22:01:20.540Z,66.10
2022-08-17T22:03:57.088Z,65.83
2022-08-17T22:06:29.147Z,65.70
2022-08-17T22:09:02.524Z,65.06
2022-08-17T22:11:29.736Z,64.28
2022-08-17T22:14:05.122Z,64.53
2022-08-17T22:16:33.424Z,64.89
2022-08-17T22:19:00.795Z,65.00
2022-08-17T22:21:28.086Z,65.11
2022-08-17T22:24:04.862Z,65.82
2022-08-17T22:26:59.597Z,65.10
2022-08-17T22:29:57.214Z,66.20
2022-08-17T22:32:41.066Z,65.25
2022-08-17T22:35:35.248Z,65.94
2022-08-17T22:38:20.771Z,65.62
2022-08-17T22:41:22.203Z,66.38
2022-08-17T22:43:50.374Z,66.45
2022-08-17T22:46:24.060Z,66.46
2022-08-17T22:48:58.067Z,66.64
2022-08-17T22:51:31.176Z,66.95
2022-08-17T22:54:20.640Z,66.82
2022-08-17T22:57:29.357Z,66.92
2022-08-17T22:59:57.704Z,66.99
2022-08-17T23:02:30.719Z,66.53
2022-08-17T23:05:17.025Z,66.51
2022-08-17T23:07:45.667Z,67.03
2022-08-17T23:10:13.909Z,67.43
2022-08-17T23:12:41.303Z,67.44
2022-08-17T23:15:16.428Z,68.29
2022-08-17T23:17:44.536Z,68.09
2022-08-17T23:20:14.863Z,68.70
2022-08-17T23:22:52.209Z,68.24
2022-08-17T23:25:28.152Z,68.60
2022-08-17T23:27:57.546Z,68.31
2022-08-17T23:30:25.782Z,69.20
2022-08-17T23:32:54.589Z,68.91
2022-08-17T23:35:40.540Z,69.08
2022-08-17T23:38:13.138Z,69.76
2022-08-17T23:40:41.054Z,69.36
2022-08-17T23:43:24.146Z,69.14
2022-08-17T23:45:54.827Z,68.71
2022-08-17T23:48:27.797Z,68.06
2022-08-17T23:51:04.883Z,67.94
2022-08-17T23:53:35.097Z,67.84
2022-08-17T23:56:09.636Z,67.71
2022-08-17T23:58:42.749Z,67.79
